Subic Bay, Philippines

5:52 PM PHT on July 07, 2015 (GMT +0800)
Ninoy Aquino International | | Change Station
CLOSE
Current Station
Airport
Location: Manila,
Elevation: 49 ft
Nearby Weather Stations

Elev 49 ft 14.51 °N, 121.00 °E | Updated 27 minutes ago

Rain Showers
Showers Rain
81 °F
Feels Like 89 °F
N
20
Wind Variable Wind from WSW
Gusts 32 mph

Today
High -- | Low -- °F
--% Chance of Precip.
Yesterday
High -- | Low -- °F
Precip. -- in
5:34 AM 6:32 PM
Waning Gibbous, 66% visible
Pressure 29.59 in
Visibility 4.3 miles
Clouds Few 2000 ft
Scattered Clouds 2200 ft
Overcast 8000 ft
Heat Index 89 °F
Dew Point 81 °F
Humidity 100%
Rainfall 0.00 in
Snow Depth Not available.
UV 0 out of 12
Pollen Not available.
Air Quality Not available.
Flu Activity Not available.
SPECI RPLL 070925Z 24017G28KT 7000 SHRA FEW020 SCT022 OVC080 27/27 Q1002 TEMPO 5000 RA RMK A2959 CB /SW AND NNE

More Conditions Fewer Conditions

Pressure 29.59 in
Visibility 4.3 miles
Clouds Few 2000 ft
Scattered Clouds 2200 ft
Overcast 8000 ft
Heat Index 89 °F
Dew Point 81 °F
Humidity 100%
Rainfall 0.00 in
Snow Depth Not available.
UV 0 out of 12
Pollen Not available.
Air Quality Not available.
Flu Activity Not available.
SPECI RPLL 070925Z 24017G28KT 7000 SHRA FEW020 SCT022 OVC080 27/27 Q1002 TEMPO 5000 RA RMK A2959 CB /SW AND NNE

More Conditions Fewer Conditions

10-Day Weather Forecast

×

Almanac

Astronomy

Jul. 07, 2015 Rise Set
Actual Time
Civil Twilight
Nautical Twilight
Astronomical Twilight
Moon
Length of Visible Light
Length of Day
Tomorrow will be .
, % of the Moon is Illuminated

Today's Extremes

Country Highs Country Lows

Community

WunderPhotos

Upload Photos

1,835,758 photos uploaded!

WunderBlogs® & News

Nearby

Air Quality

  Air Quality AQ Index Pollutant
Not available.

Snow Depth

Station Depth Elevation

Earthquake Activity

City Distance Mag. Time & Date
Minimum magnitude displayed is 2.5.

Coastal Water Temperatures

Place Temperature

Stations

Nearby Weather Stations

Station Location Temp. Windchill Dew Point Humidity Wind Precip. Elev Updated Type